Airfield :
LOGIN :

Register | Disclaimer

   EN    FR    IT 

 










Legend :    VFR   Marginal VFR   IFR   Intensive IFR   Very Intensive IFR
Visi :
Ceiling :
>= 8 km
>= 3000ft
5 to 8 km
1000 to 3000 ft
1500m to 5 km
500 to 1000 ft
800 to 1500m
200 to 500 ft
< 800m
< 200 ft
Symbols :   Thunderstorms  Fog  Heavy snow  Heavy precipitations  Wind > 20 kt
SIGMETs :     Misc.  Thunderstorms  Icing  Turbulence  Mountain Waves  Volcanic Ashes






- Airport Elevation : 121 ft
- IATA code : HUY


EGNJ - Humberside

CURRENT METAR :
  • 112250Z AUTO 20009KT 9999 NCD 01/01 Q0999

EXPIRED METARs :
  • 112220Z AUTO 21008KT 9999 NCD 02/01 Q0999
  • 112150Z AUTO 21009KT 9999 NCD 02/02 Q1000
  • 112120Z AUTO 21010KT 9999 NCD 02/02 Q0999
  • 112050Z 21010KT CAVOK 03/02 Q0999
  • 112020Z 20008KT CAVOK 02/02 Q1000

TAF TAF EGNJ
Valid from the 11 at 21:00 until the 12 at 06:00 UTC


112004Z 1121/1206 21008KT 9999 SCT030
PROB30 1200/1206 9000
ATIS : +44 1652 682 020



MET'MAP, your aeronautical weather chart ! - Copyright ORBIFLY December 2007 - Disclaimer

ORBIFLY MET'MAP TEAM :

Programming & Development : Alexandra Zaïnal
Concept & original design : Baudouin d'Aumeries
Assistance for programming : Marc-Olivier Méhu
Technical & hardware support : Manuel Goepfert

Contact : metmap@orbifly.com




SOURCES & CREDITS :

   NOAA